sensor_id;sensor_type;location;lat;lon;timestamp;pressure;altitude;pressure_sealevel;temperature;humidity
40708;BME280;26392;42.696;23.350;2023-03-11T00:00:32;93535.94;;;10.52;100.00
40708;BME280;26392;42.696;23.350;2023-03-11T00:03:00;93536.75;;;10.52;100.00
40708;BME280;26392;42.696;23.350;2023-03-11T00:05:41;93532.81;;;10.45;100.00
40708;BME280;26392;42.696;23.350;2023-03-11T00:08:08;93554.31;;;10.27;100.00
40708;BME280;26392;42.696;23.350;2023-03-11T00:10:38;93549.38;;;10.29;100.00
40708;BME280;26392;42.696;23.350;2023-03-11T00:13:06;93538.13;;;10.17;100.00
40708;BME280;26392;42.696;23.350;2023-03-11T00:15:32;93530.25;;;9.97;100.00
40708;BME280;26392;42.696;23.350;2023-03-11T00:17:58;93534.31;;;9.80;100.00
40708;BME280;26392;42.696;23.350;2023-03-11T00:20:31;93527.00;;;9.57;100.00
40708;BME280;26392;42.696;23.350;2023-03-11T00:22:58;93517.03;;;9.52;100.00
40708;BME280;26392;42.696;23.350;2023-03-11T00:25:26;93513.84;;;9.45;100.00
40708;BME280;26392;42.696;23.350;2023-03-11T00:27:52;93495.97;;;9.39;100.00
40708;BME280;26392;42.696;23.350;2023-03-11T00:30:19;93510.16;;;9.36;100.00
40708;BME280;26392;42.696;23.350;2023-03-11T00:32:47;93505.47;;;9.41;100.00
40708;BME280;26392;42.696;23.350;2023-03-11T00:35:16;93507.28;;;9.46;100.00
40708;BME280;26392;42.696;23.350;2023-03-11T00:37:43;93501.50;;;9.53;100.00
40708;BME280;26392;42.696;23.350;2023-03-11T00:40:12;93499.81;;;9.57;100.00
40708;BME280;26392;42.696;23.350;2023-03-11T00:42:37;93498.63;;;9.63;100.00
40708;BME280;26392;42.696;23.350;2023-03-11T00:45:03;93504.91;;;9.63;100.00
40708;BME280;26392;42.696;23.350;2023-03-11T00:47:29;93511.88;;;9.70;100.00
40708;BME280;26392;42.696;23.350;2023-03-11T00:49:54;93493.34;;;9.72;100.00
40708;BME280;26392;42.696;23.350;2023-03-11T00:52:19;93481.06;;;9.74;100.00
40708;BME280;26392;42.696;23.350;2023-03-11T00:54:45;93482.13;;;9.78;100.00
40708;BME280;26392;42.696;23.350;2023-03-11T00:57:10;93473.97;;;9.78;100.00
40708;BME280;26392;42.696;23.350;2023-03-11T00:59:35;93469.31;;;9.79;100.00
40708;BME280;26392;42.696;23.350;2023-03-11T01:02:01;93469.31;;;9.79;100.00
40708;BME280;26392;42.696;23.350;2023-03-11T01:04:26;93470.13;;;9.79;100.00
40708;BME280;26392;42.696;23.350;2023-03-11T01:06:52;93465.22;;;9.81;100.00
40708;BME280;26392;42.696;23.350;2023-03-11T01:09:17;93460.66;;;9.77;100.00
40708;BME280;26392;42.696;23.350;2023-03-11T01:11:42;93464.09;;;9.82;100.00
40708;BME280;26392;42.696;23.350;2023-03-11T01:14:08;93457.47;;;9.89;100.00
40708;BME280;26392;42.696;23.350;2023-03-11T01:16:33;93456.59;;;9.93;100.00
40708;BME280;26392;42.696;23.350;2023-03-11T01:18:59;93442.91;;;9.98;100.00
40708;BME280;26392;42.696;23.350;2023-03-11T01:21:24;93441.94;;;10.08;100.00
40708;BME280;26392;42.696;23.350;2023-03-11T01:23:49;93433.09;;;10.16;100.00
40708;BME280;26392;42.696;23.350;2023-03-11T01:26:15;93415.22;;;10.10;100.00
40708;BME280;26392;42.696;23.350;2023-03-11T01:28:40;93416.34;;;10.09;100.00
40708;BME280;26392;42.696;23.350;2023-03-11T01:31:08;93397.78;;;9.97;100.00
40708;BME280;26392;42.696;23.350;2023-03-11T01:33:33;93405.28;;;10.05;100.00
40708;BME280;26392;42.696;23.350;2023-03-11T01:35:59;93402.19;;;9.93;100.00
40708;BME280;26392;42.696;23.350;2023-03-11T01:38:24;93396.63;;;9.84;100.00
40708;BME280;26392;42.696;23.350;2023-03-11T01:40:51;93397.81;;;9.78;100.00
40708;BME280;26392;42.696;23.350;2023-03-11T01:48:27;93400.34;;;9.56;100.00
40708;BME280;26392;42.696;23.350;2023-03-11T01:50:53;93393.50;;;9.39;100.00
40708;BME280;26392;42.696;23.350;2023-03-11T01:53:18;93407.97;;;9.35;100.00
40708;BME280;26392;42.696;23.350;2023-03-11T01:55:45;93408.19;;;9.19;100.00
40708;BME280;26392;42.696;23.350;2023-03-11T01:58:18;93417.09;;;9.25;100.00
40708;BME280;26392;42.696;23.350;2023-03-11T02:00:45;93420.34;;;9.27;100.00
40708;BME280;26392;42.696;23.350;2023-03-11T02:03:21;93419.06;;;9.19;100.00
40708;BME280;26392;42.696;23.350;2023-03-11T02:05:48;93410.69;;;9.16;100.00
40708;BME280;26392;42.696;23.350;2023-03-11T02:08:16;93405.09;;;9.26;100.00
40708;BME280;26392;42.696;23.350;2023-03-11T02:10:42;93424.88;;;9.32;100.00
40708;BME280;26392;42.696;23.350;2023-03-11T02:13:09;93430.31;;;9.32;100.00
40708;BME280;26392;42.696;23.350;2023-03-11T02:15:35;93436.25;;;9.34;100.00
40708;BME280;26392;42.696;23.350;2023-03-11T02:18:02;93433.25;;;9.35;100.00
40708;BME280;26392;42.696;23.350;2023-03-11T02:20:39;93444.78;;;9.27;100.00
40708;BME280;26392;42.696;23.350;2023-03-11T02:23:06;93442.56;;;9.29;100.00
40708;BME280;26392;42.696;23.350;2023-03-11T02:25:40;93449.03;;;9.33;100.00
40708;BME280;26392;42.696;23.350;2023-03-11T02:28:11;93441.75;;;9.29;100.00
40708;BME280;26392;42.696;23.350;2023-03-11T02:30:40;93451.25;;;9.31;100.00
40708;BME280;26392;42.696;23.350;2023-03-11T02:33:06;93445.34;;;9.24;100.00
40708;BME280;26392;42.696;23.350;2023-03-11T02:35:32;93441.97;;;9.32;100.00
40708;BME280;26392;42.696;23.350;2023-03-11T02:37:58;93439.78;;;9.34;100.00
40708;BME280;26392;42.696;23.350;2023-03-11T02:42:51;93425.84;;;9.41;100.00
40708;BME280;26392;42.696;23.350;2023-03-11T02:45:21;93415.53;;;9.38;100.00
40708;BME280;26392;42.696;23.350;2023-03-11T02:47:48;93417.59;;;9.46;100.00
40708;BME280;26392;42.696;23.350;2023-03-11T02:50:15;93435.50;;;9.66;100.00
40708;BME280;26392;42.696;23.350;2023-03-11T02:52:41;93438.81;;;9.82;100.00
40708;BME280;26392;42.696;23.350;2023-03-11T02:55:08;93434.22;;;9.96;100.00
40708;BME280;26392;42.696;23.350;2023-03-11T02:57:34;93433.88;;;10.03;100.00
40708;BME280;26392;42.696;23.350;2023-03-11T03:00:00;93433.47;;;10.09;100.00
40708;BME280;26392;42.696;23.350;2023-03-11T03:02:32;93437.34;;;10.22;100.00
40708;BME280;26392;42.696;23.350;2023-03-11T03:04:58;93426.31;;;10.33;100.00
40708;BME280;26392;42.696;23.350;2023-03-11T03:07:23;93449.59;;;10.39;100.00
40708;BME280;26392;42.696;23.350;2023-03-11T03:09:48;93430.78;;;10.42;100.00
40708;BME280;26392;42.696;23.350;2023-03-11T03:12:14;93441.78;;;10.51;100.00
40708;BME280;26392;42.696;23.350;2023-03-11T03:14:39;93438.28;;;10.64;100.00
40708;BME280;26392;42.696;23.350;2023-03-11T03:17:05;93437.56;;;10.72;100.00
40708;BME280;26392;42.696;23.350;2023-03-11T03:19:30;93433.66;;;10.79;100.00
40708;BME280;26392;42.696;23.350;2023-03-11T03:21:55;93439.09;;;10.79;100.00
40708;BME280;26392;42.696;23.350;2023-03-11T03:24:21;93447.88;;;10.75;100.00
40708;BME280;26392;42.696;23.350;2023-03-11T03:26:46;93456.22;;;10.65;100.00
40708;BME280;26392;42.696;23.350;2023-03-11T03:29:12;93449.63;;;10.52;100.00
40708;BME280;26392;42.696;23.350;2023-03-11T03:31:37;93459.00;;;10.46;100.00
40708;BME280;26392;42.696;23.350;2023-03-11T03:34:02;93466.66;;;10.12;100.00
40708;BME280;26392;42.696;23.350;2023-03-11T03:36:28;93457.50;;;9.70;100.00
40708;BME280;26392;42.696;23.350;2023-03-11T03:38:55;93443.75;;;9.61;100.00
40708;BME280;26392;42.696;23.350;2023-03-11T03:41:20;93457.84;;;9.82;100.00
40708;BME280;26392;42.696;23.350;2023-03-11T03:43:46;93453.34;;;9.91;100.00
40708;BME280;26392;42.696;23.350;2023-03-11T03:46:11;93461.09;;;9.84;100.00
40708;BME280;26392;42.696;23.350;2023-03-11T03:48:37;93461.16;;;9.79;100.00
40708;BME280;26392;42.696;23.350;2023-03-11T03:51:04;93457.13;;;9.57;100.00
40708;BME280;26392;42.696;23.350;2023-03-11T03:53:32;93459.75;;;9.44;100.00
40708;BME280;26392;42.696;23.350;2023-03-11T03:56:02;93448.69;;;9.59;100.00
40708;BME280;26392;42.696;23.350;2023-03-11T03:58:27;93444.78;;;9.65;100.00
40708;BME280;26392;42.696;23.350;2023-03-11T04:00:56;93444.41;;;9.72;100.00
40708;BME280;26392;42.696;23.350;2023-03-11T04:03:22;93447.72;;;9.69;100.00
40708;BME280;26392;42.696;23.350;2023-03-11T04:05:47;93437.88;;;9.73;100.00
40708;BME280;26392;42.696;23.350;2023-03-11T04:08:12;93432.72;;;9.71;100.00
40708;BME280;26392;42.696;23.350;2023-03-11T04:10:38;93442.59;;;9.67;100.00
40708;BME280;26392;42.696;23.350;2023-03-11T04:13:03;93428.53;;;9.79;100.00
40708;BME280;26392;42.696;23.350;2023-03-11T04:15:29;93433.09;;;9.83;100.00
40708;BME280;26392;42.696;23.350;2023-03-11T04:17:54;93432.56;;;9.81;100.00
40708;BME280;26392;42.696;23.350;2023-03-11T04:20:20;93434.81;;;9.93;100.00
40708;BME280;26392;42.696;23.350;2023-03-11T04:22:45;93438.06;;;9.95;100.00
40708;BME280;26392;42.696;23.350;2023-03-11T04:25:10;93448.44;;;9.93;100.00
40708;BME280;26392;42.696;23.350;2023-03-11T04:27:36;93446.75;;;9.97;100.00
40708;BME280;26392;42.696;23.350;2023-03-11T04:30:04;93445.97;;;10.11;100.00
40708;BME280;26392;42.696;23.350;2023-03-11T04:32:30;93449.22;;;10.13;100.00
40708;BME280;26392;42.696;23.350;2023-03-11T04:34:56;93436.31;;;10.18;100.00
40708;BME280;26392;42.696;23.350;2023-03-11T04:37:21;93422.19;;;10.35;100.00
40708;BME280;26392;42.696;23.350;2023-03-11T04:39:46;93428.84;;;10.43;100.00
40708;BME280;26392;42.696;23.350;2023-03-11T04:42:12;93427.38;;;10.50;100.00
40708;BME280;26392;42.696;23.350;2023-03-11T04:44:38;93423.72;;;10.55;100.00
40708;BME280;26392;42.696;23.350;2023-03-11T04:47:04;93431.38;;;10.67;100.00
40708;BME280;26392;42.696;23.350;2023-03-11T04:49:29;93429.59;;;10.76;100.00
40708;BME280;26392;42.696;23.350;2023-03-11T04:51:55;93424.06;;;10.81;100.00
40708;BME280;26392;42.696;23.350;2023-03-11T04:54:20;93421.72;;;10.88;100.00
40708;BME280;26392;42.696;23.350;2023-03-11T04:56:46;93429.19;;;10.96;100.00
40708;BME280;26392;42.696;23.350;2023-03-11T04:59:11;93436.06;;;11.08;100.00
40708;BME280;26392;42.696;23.350;2023-03-11T05:01:37;93434.72;;;11.19;100.00
40708;BME280;26392;42.696;23.350;2023-03-11T05:04:02;93438.66;;;11.27;100.00
40708;BME280;26392;42.696;23.350;2023-03-11T05:06:28;93444.50;;;11.34;100.00
40708;BME280;26392;42.696;23.350;2023-03-11T05:08:53;93436.63;;;11.32;100.00
40708;BME280;26392;42.696;23.350;2023-03-11T05:11:19;93449.34;;;11.37;100.00
40708;BME280;26392;42.696;23.350;2023-03-11T05:13:44;93457.63;;;11.46;100.00
40708;BME280;26392;42.696;23.350;2023-03-11T05:16:10;93457.00;;;11.49;100.00
40708;BME280;26392;42.696;23.350;2023-03-11T05:18:35;93459.13;;;11.52;100.00
40708;BME280;26392;42.696;23.350;2023-03-11T05:21:00;93457.09;;;11.57;100.00
40708;BME280;26392;42.696;23.350;2023-03-11T05:23:26;93461.75;;;11.57;100.00
40708;BME280;26392;42.696;23.350;2023-03-11T05:25:51;93464.66;;;11.60;100.00
40708;BME280;26392;42.696;23.350;2023-03-11T05:28:17;93479.78;;;11.67;100.00
40708;BME280;26392;42.696;23.350;2023-03-11T05:30:42;93473.53;;;11.66;100.00
40708;BME280;26392;42.696;23.350;2023-03-11T05:33:08;93472.22;;;11.63;100.00
40708;BME280;26392;42.696;23.350;2023-03-11T05:35:33;93479.59;;;11.63;100.00
40708;BME280;26392;42.696;23.350;2023-03-11T05:37:58;93476.88;;;11.63;100.00
40708;BME280;26392;42.696;23.350;2023-03-11T05:40:24;93477.38;;;11.65;100.00
40708;BME280;26392;42.696;23.350;2023-03-11T05:42:49;93499.59;;;11.72;100.00
40708;BME280;26392;42.696;23.350;2023-03-11T05:45:15;93503.00;;;11.78;100.00
40708;BME280;26392;42.696;23.350;2023-03-11T05:47:41;93487.53;;;11.73;100.00
40708;BME280;26392;42.696;23.350;2023-03-11T05:50:08;93495.53;;;11.83;100.00
40708;BME280;26392;42.696;23.350;2023-03-11T05:52:34;93503.91;;;11.87;100.00
40708;BME280;26392;42.696;23.350;2023-03-11T05:54:59;93509.78;;;11.94;100.00
40708;BME280;26392;42.696;23.350;2023-03-11T05:57:25;93532.31;;;12.00;100.00
40708;BME280;26392;42.696;23.350;2023-03-11T05:59:50;93524.72;;;11.97;100.00
40708;BME280;26392;42.696;23.350;2023-03-11T06:02:16;93531.19;;;12.01;100.00
40708;BME280;26392;42.696;23.350;2023-03-11T06:04:41;93531.78;;;11.98;100.00
40708;BME280;26392;42.696;23.350;2023-03-11T06:07:07;93527.03;;;12.03;100.00
40708;BME280;26392;42.696;23.350;2023-03-11T06:09:32;93535.97;;;12.18;100.00
40708;BME280;26392;42.696;23.350;2023-03-11T06:12:01;93535.75;;;12.28;100.00
40708;BME280;26392;42.696;23.350;2023-03-11T06:14:27;93539.16;;;12.34;100.00
40708;BME280;26392;42.696;23.350;2023-03-11T06:16:56;93543.28;;;12.45;100.00
40708;BME280;26392;42.696;23.350;2023-03-11T06:19:21;93546.97;;;12.49;100.00
40708;BME280;26392;42.696;23.350;2023-03-11T06:21:47;93539.06;;;12.39;100.00
40708;BME280;26392;42.696;23.350;2023-03-11T06:24:12;93550.72;;;12.30;100.00
40708;BME280;26392;42.696;23.350;2023-03-11T06:26:37;93553.38;;;12.22;100.00
40708;BME280;26392;42.696;23.350;2023-03-11T06:29:03;93539.69;;;11.99;100.00
40708;BME280;26392;42.696;23.350;2023-03-11T06:31:29;93542.81;;;11.93;100.00
40708;BME280;26392;42.696;23.350;2023-03-11T06:33:54;93545.75;;;11.96;100.00
40708;BME280;26392;42.696;23.350;2023-03-11T06:36:21;93544.56;;;11.89;100.00
40708;BME280;26392;42.696;23.350;2023-03-11T06:38:47;93545.06;;;11.91;100.00
40708;BME280;26392;42.696;23.350;2023-03-11T06:41:15;93545.44;;;11.98;100.00
40708;BME280;26392;42.696;23.350;2023-03-11T06:43:41;93547.56;;;12.01;100.00
40708;BME280;26392;42.696;23.350;2023-03-11T06:46:12;93548.50;;;11.96;100.00
40708;BME280;26392;42.696;23.350;2023-03-11T06:48:39;93554.75;;;11.97;100.00
40708;BME280;26392;42.696;23.350;2023-03-11T06:51:04;93556.84;;;12.00;100.00
40708;BME280;26392;42.696;23.350;2023-03-11T06:53:30;93549.09;;;11.93;100.00
40708;BME280;26392;42.696;23.350;2023-03-11T06:56:09;93539.16;;;11.83;100.00
40708;BME280;26392;42.696;23.350;2023-03-11T06:58:37;93556.34;;;11.84;100.00
40708;BME280;26392;42.696;23.350;2023-03-11T07:01:09;93545.44;;;11.70;100.00
40708;BME280;26392;42.696;23.350;2023-03-11T07:03:35;93549.59;;;11.95;100.00
40708;BME280;26392;42.696;23.350;2023-03-11T07:06:01;93553.63;;;11.98;100.00
40708;BME280;26392;42.696;23.350;2023-03-11T07:08:26;93553.69;;;12.06;100.00
40708;BME280;26392;42.696;23.350;2023-03-11T07:11:07;93551.16;;;12.24;100.00
40708;BME280;26392;42.696;23.350;2023-03-11T07:13:33;93559.84;;;12.48;100.00
40708;BME280;26392;42.696;23.350;2023-03-11T07:16:06;93550.59;;;12.58;100.00
40708;BME280;26392;42.696;23.350;2023-03-11T07:18:33;93549.34;;;12.64;100.00
40708;BME280;26392;42.696;23.350;2023-03-11T07:21:03;93548.63;;;12.72;100.00
40708;BME280;26392;42.696;23.350;2023-03-11T07:23:29;93540.97;;;12.83;100.00
40708;BME280;26392;42.696;23.350;2023-03-11T07:25:55;93546.38;;;12.97;100.00
40708;BME280;26392;42.696;23.350;2023-03-11T07:28:26;93546.72;;;13.04;100.00
40708;BME280;26392;42.696;23.350;2023-03-11T07:30:52;93532.31;;;13.21;100.00
40708;BME280;26392;42.696;23.350;2023-03-11T07:33:18;93533.50;;;13.29;100.00
40708;BME280;26392;42.696;23.350;2023-03-11T07:35:45;93531.63;;;13.38;100.00
40708;BME280;26392;42.696;23.350;2023-03-11T07:38:10;93524.84;;;13.35;100.00
40708;BME280;26392;42.696;23.350;2023-03-11T07:40:36;93523.59;;;13.41;100.00
40708;BME280;26392;42.696;23.350;2023-03-11T07:43:02;93514.09;;;13.39;100.00
40708;BME280;26392;42.696;23.350;2023-03-11T07:45:27;93515.81;;;13.26;100.00
40708;BME280;26392;42.696;23.350;2023-03-11T07:47:53;93506.66;;;13.31;100.00
40708;BME280;26392;42.696;23.350;2023-03-11T07:50:18;93503.75;;;13.27;100.00
40708;BME280;26392;42.696;23.350;2023-03-11T07:52:46;93509.81;;;13.24;100.00
40708;BME280;26392;42.696;23.350;2023-03-11T07:55:12;93506.16;;;13.29;97.46
40708;BME280;26392;42.696;23.350;2023-03-11T07:57:37;93500.59;;;13.11;91.49
40708;BME280;26392;42.696;23.350;2023-03-11T08:00:03;93497.19;;;13.06;91.54
40708;BME280;26392;42.696;23.350;2023-03-11T08:02:29;93487.19;;;13.01;90.59
40708;BME280;26392;42.696;23.350;2023-03-11T08:04:55;93477.44;;;13.09;88.91
40708;BME280;26392;42.696;23.350;2023-03-11T08:07:20;93479.53;;;13.12;90.17
40708;BME280;26392;42.696;23.350;2023-03-11T08:09:46;93467.66;;;13.16;89.73
40708;BME280;26392;42.696;23.350;2023-03-11T08:12:11;93469.13;;;13.23;88.39
40708;BME280;26392;42.696;23.350;2023-03-11T08:14:36;93465.53;;;13.13;88.24
40708;BME280;26392;42.696;23.350;2023-03-11T08:17:04;93454.00;;;13.16;91.74
40708;BME280;26392;42.696;23.350;2023-03-11T08:19:29;93453.78;;;13.13;91.09
40708;BME280;26392;42.696;23.350;2023-03-11T08:21:55;93455.44;;;13.14;91.56
40708;BME280;26392;42.696;23.350;2023-03-11T08:24:20;93446.44;;;13.22;87.93
40708;BME280;26392;42.696;23.350;2023-03-11T08:26:46;93447.44;;;13.26;87.39
40708;BME280;26392;42.696;23.350;2023-03-11T08:29:11;93430.25;;;13.34;83.45
40708;BME280;26392;42.696;23.350;2023-03-11T08:31:37;93432.06;;;13.48;80.80
40708;BME280;26392;42.696;23.350;2023-03-11T08:34:05;93441.44;;;13.73;80.27
40708;BME280;26392;42.696;23.350;2023-03-11T08:36:31;93416.97;;;13.85;79.20
40708;BME280;26392;42.696;23.350;2023-03-11T08:38:57;93418.41;;;13.91;77.04
40708;BME280;26392;42.696;23.350;2023-03-11T08:41:23;93413.75;;;13.83;78.21
40708;BME280;26392;42.696;23.350;2023-03-11T08:43:48;93422.28;;;13.99;76.21
40708;BME280;26392;42.696;23.350;2023-03-11T08:46:29;93419.19;;;14.35;74.66
40708;BME280;26392;42.696;23.350;2023-03-11T08:48:55;93412.88;;;14.61;66.24
40708;BME280;26392;42.696;23.350;2023-03-11T08:51:22;93414.63;;;14.74;63.96
40708;BME280;26392;42.696;23.350;2023-03-11T08:53:48;93398.66;;;14.67;62.01
40708;BME280;26392;42.696;23.350;2023-03-11T08:56:14;93406.41;;;14.74;61.45
40708;BME280;26392;42.696;23.350;2023-03-11T08:58:40;93401.59;;;14.71;60.01
40708;BME280;26392;42.696;23.350;2023-03-11T09:01:06;93394.44;;;14.78;60.07
40708;BME280;26392;42.696;23.350;2023-03-11T09:03:34;93390.81;;;14.95;60.16
40708;BME280;26392;42.696;23.350;2023-03-11T09:06:01;93394.72;;;14.94;59.14
40708;BME280;26392;42.696;23.350;2023-03-11T09:08:27;93398.31;;;14.77;58.84
40708;BME280;26392;42.696;23.350;2023-03-11T09:10:53;93391.94;;;14.65;60.16
40708;BME280;26392;42.696;23.350;2023-03-11T09:13:19;93364.72;;;14.51;60.93
40708;BME280;26392;42.696;23.350;2023-03-11T09:15:44;93380.66;;;14.58;60.55
40708;BME280;26392;42.696;23.350;2023-03-11T09:18:14;93381.75;;;14.48;60.57
40708;BME280;26392;42.696;23.350;2023-03-11T09:20:40;93381.16;;;14.60;62.25
40708;BME280;26392;42.696;23.350;2023-03-11T09:23:07;93376.41;;;14.77;62.44
40708;BME280;26392;42.696;23.350;2023-03-11T09:25:32;93386.00;;;14.92;61.94
40708;BME280;26392;42.696;23.350;2023-03-11T09:27:58;93382.91;;;15.03;60.42
40708;BME280;26392;42.696;23.350;2023-03-11T09:30:23;93396.78;;;14.97;59.72
40708;BME280;26392;42.696;23.350;2023-03-11T09:32:48;93381.94;;;15.07;59.45
40708;BME280;26392;42.696;23.350;2023-03-11T09:35:14;93365.91;;;15.09;59.43
40708;BME280;26392;42.696;23.350;2023-03-11T09:37:39;93374.00;;;15.06;58.12
40708;BME280;26392;42.696;23.350;2023-03-11T09:40:05;93369.69;;;15.05;58.54
40708;BME280;26392;42.696;23.350;2023-03-11T09:42:44;93368.25;;;15.28;58.45
40708;BME280;26392;42.696;23.350;2023-03-11T09:45:20;93370.03;;;15.54;56.96
40708;BME280;26392;42.696;23.350;2023-03-11T09:48:15;93386.19;;;15.76;55.93
40708;BME280;26392;42.696;23.350;2023-03-11T09:51:02;93373.47;;;15.93;56.27
40708;BME280;26392;42.696;23.350;2023-03-11T09:53:43;93360.56;;;15.72;55.94
40708;BME280;26392;42.696;23.350;2023-03-11T09:56:15;93369.03;;;15.58;55.30
40708;BME280;26392;42.696;23.350;2023-03-11T09:59:13;93364.66;;;15.36;55.81
40708;BME280;26392;42.696;23.350;2023-03-11T10:01:41;93364.41;;;15.20;56.12
40708;BME280;26392;42.696;23.350;2023-03-11T10:04:13;93365.03;;;15.26;55.58
40708;BME280;26392;42.696;23.350;2023-03-11T10:06:43;93372.34;;;15.43;54.98
40708;BME280;26392;42.696;23.350;2023-03-11T10:20:12;93381.13;;;16.41;49.14
40708;BME280;26392;42.696;23.350;2023-03-11T10:25:20;93388.34;;;16.46;50.52
40708;BME280;26392;42.696;23.350;2023-03-11T10:27:54;93376.28;;;16.38;49.66
40708;BME280;26392;42.696;23.350;2023-03-11T10:33:23;93382.47;;;16.35;49.67
40708;BME280;26392;42.696;23.350;2023-03-11T10:35:53;93388.94;;;16.51;51.00
40708;BME280;26392;42.696;23.350;2023-03-11T10:40:50;93373.63;;;16.29;49.21
40708;BME280;26392;42.696;23.350;2023-03-11T10:43:20;93375.88;;;16.15;52.63
40708;BME280;26392;42.696;23.350;2023-03-11T10:45:50;93376.41;;;15.87;52.67
40708;BME280;26392;42.696;23.350;2023-03-11T10:48:18;93372.94;;;15.78;53.32
40708;BME280;26392;42.696;23.350;2023-03-11T10:51:11;93383.97;;;15.91;54.41
40708;BME280;26392;42.696;23.350;2023-03-11T10:54:04;93420.75;;;15.77;56.54
40708;BME280;26392;42.696;23.350;2023-03-11T10:58:55;93412.72;;;13.44;88.17
40708;BME280;26392;42.696;23.350;2023-03-11T11:01:22;93405.47;;;12.91;100.00
40708;BME280;26392;42.696;23.350;2023-03-11T11:03:51;93378.69;;;12.62;100.00
40708;BME280;26392;42.696;23.350;2023-03-11T11:06:27;93402.50;;;12.70;99.64
40708;BME280;26392;42.696;23.350;2023-03-11T11:11:33;93415.84;;;13.03;88.83
40708;BME280;26392;42.696;23.350;2023-03-11T11:14:04;93400.00;;;13.31;86.94
40708;BME280;26392;42.696;23.350;2023-03-11T11:16:32;93405.03;;;13.55;87.97
40708;BME280;26392;42.696;23.350;2023-03-11T11:19:08;93399.91;;;13.62;80.10
40708;BME280;26392;42.696;23.350;2023-03-11T11:21:47;93394.44;;;13.79;82.19
40708;BME280;26392;42.696;23.350;2023-03-11T11:24:28;93378.50;;;13.90;74.96
40708;BME280;26392;42.696;23.350;2023-03-11T11:29:29;93373.41;;;14.53;73.52
40708;BME280;26392;42.696;23.350;2023-03-11T11:32:19;93359.13;;;14.86;72.46
40708;BME280;26392;42.696;23.350;2023-03-11T11:34:59;93353.31;;;15.17;70.50
40708;BME280;26392;42.696;23.350;2023-03-11T11:37:28;93346.13;;;15.33;66.13
40708;BME280;26392;42.696;23.350;2023-03-11T11:43:35;93340.88;;;15.91;61.60
40708;BME280;26392;42.696;23.350;2023-03-11T11:45:56;93339.75;;;16.04;57.25
40708;BME280;26392;42.696;23.350;2023-03-11T11:51:33;93314.81;;;16.30;55.36
40708;BME280;26392;42.696;23.350;2023-03-11T11:56:49;93321.50;;;16.54;52.80
40708;BME280;26392;42.696;23.350;2023-03-11T11:59:19;93318.75;;;16.54;52.51
40708;BME280;26392;42.696;23.350;2023-03-11T12:05:09;93308.69;;;16.58;51.04
40708;BME280;26392;42.696;23.350;2023-03-11T12:16:25;93313.25;;;16.66;51.50
40708;BME280;26392;42.696;23.350;2023-03-11T12:24:44;93294.63;;;16.84;47.10
40708;BME280;26392;42.696;23.350;2023-03-11T12:27:18;93297.03;;;16.98;45.48
40708;BME280;26392;42.696;23.350;2023-03-11T12:29:49;93292.56;;;16.93;44.86
40708;BME280;26392;42.696;23.350;2023-03-11T12:32:36;93302.75;;;17.05;45.39
40708;BME280;26392;42.696;23.350;2023-03-11T12:35:27;93296.00;;;16.78;45.38
40708;BME280;26392;42.696;23.350;2023-03-11T12:43:26;93290.63;;;16.94;47.10
40708;BME280;26392;42.696;23.350;2023-03-11T12:45:57;93297.94;;;16.77;48.03
40708;BME280;26392;42.696;23.350;2023-03-11T12:50:52;93293.38;;;16.82;48.67
40708;BME280;26392;42.696;23.350;2023-03-11T12:53:19;93307.25;;;16.97;48.48
40708;BME280;26392;42.696;23.350;2023-03-11T12:56:08;93306.44;;;17.09;48.11
40708;BME280;26392;42.696;23.350;2023-03-11T13:04:21;93332.88;;;16.31;50.35
40708;BME280;26392;42.696;23.350;2023-03-11T13:07:06;93334.84;;;16.31;50.83
40708;BME280;26392;42.696;23.350;2023-03-11T13:09:38;93340.38;;;16.10;50.54
40708;BME280;26392;42.696;23.350;2023-03-11T13:12:37;93331.16;;;15.94;51.18
40708;BME280;26392;42.696;23.350;2023-03-11T13:41:29;93468.78;;;12.08;100.00
40708;BME280;26392;42.696;23.350;2023-03-11T13:43:59;93441.59;;;11.67;100.00
40708;BME280;26392;42.696;23.350;2023-03-11T13:46:33;93461.88;;;11.38;100.00
40708;BME280;26392;42.696;23.350;2023-03-11T13:49:08;93439.88;;;11.20;100.00
40708;BME280;26392;42.696;23.350;2023-03-11T13:51:43;93461.38;;;10.94;100.00
40708;BME280;26392;42.696;23.350;2023-03-11T13:56:47;93479.50;;;10.58;100.00
40708;BME280;26392;42.696;23.350;2023-03-11T13:59:29;93477.47;;;10.49;100.00
40708;BME280;26392;42.696;23.350;2023-03-11T14:02:00;93457.03;;;10.66;100.00
40708;BME280;26392;42.696;23.350;2023-03-11T14:04:31;93451.88;;;10.78;100.00
40708;BME280;26392;42.696;23.350;2023-03-11T14:06:57;93440.09;;;10.96;100.00
40708;BME280;26392;42.696;23.350;2023-03-11T14:09:26;93448.53;;;11.23;100.00
40708;BME280;26392;42.696;23.350;2023-03-11T14:11:53;93442.69;;;11.43;100.00
40708;BME280;26392;42.696;23.350;2023-03-11T14:14:28;93431.94;;;11.60;100.00
40708;BME280;26392;42.696;23.350;2023-03-11T14:16:55;93451.78;;;11.75;100.00
40708;BME280;26392;42.696;23.350;2023-03-11T14:19:21;93458.38;;;11.88;100.00
40708;BME280;26392;42.696;23.350;2023-03-11T14:21:49;93462.75;;;11.97;100.00
40708;BME280;26392;42.696;23.350;2023-03-11T14:24:25;93469.88;;;12.07;100.00
40708;BME280;26392;42.696;23.350;2023-03-11T14:26:52;93468.84;;;12.17;100.00
40708;BME280;26392;42.696;23.350;2023-03-11T14:29:31;93465.22;;;12.21;100.00
40708;BME280;26392;42.696;23.350;2023-03-11T14:31:57;93474.38;;;12.25;100.00
40708;BME280;26392;42.696;23.350;2023-03-11T14:34:25;93471.19;;;12.32;100.00